createdAt,value
2019-05-01T00:00:27.403Z,91.10
2019-05-01T00:03:24.876Z,91.20
2019-05-01T00:05:57.379Z,91.30
2019-05-01T00:08:27.143Z,91.30
2019-05-01T00:10:56.522Z,91.40
2019-05-01T00:13:26.167Z,91.30
2019-05-01T00:15:55.837Z,91.30
2019-05-01T00:18:25.554Z,91.40
2019-05-01T00:20:54.932Z,91.50
2019-05-01T00:23:24.335Z,91.50
2019-05-01T00:25:53.755Z,91.50
2019-05-01T00:28:23.352Z,91.60
2019-05-01T00:30:52.725Z,91.60
2019-05-01T00:33:22.138Z,91.60
2019-05-01T00:35:51.531Z,91.70
2019-05-01T00:38:20.919Z,91.70
2019-05-01T00:40:50.371Z,92.00
2019-05-01T00:43:19.787Z,91.80
2019-05-01T00:45:49.120Z,91.80
2019-05-01T00:48:18.513Z,91.80
2019-05-01T00:50:47.908Z,92.10
2019-05-01T00:53:17.423Z,91.90
2019-05-01T00:55:57.095Z,91.90
2019-05-01T00:58:44.423Z,91.80
2019-05-01T01:01:35.882Z,91.80
2019-05-01T01:04:05.436Z,91.80
2019-05-01T01:06:34.937Z,91.80
2019-05-01T01:09:05.604Z,91.80
2019-05-01T01:11:35.105Z,91.80
2019-05-01T01:14:04.819Z,91.80
2019-05-01T01:16:34.242Z,91.90
2019-05-01T01:19:03.630Z,91.90
2019-05-01T01:21:33.060Z,92.00
2019-05-01T01:24:02.650Z,92.00
2019-05-01T01:26:32.267Z,92.00
2019-05-01T01:29:01.683Z,91.90
2019-05-01T01:31:31.151Z,91.90
2019-05-01T01:34:00.583Z,91.80
2019-05-01T01:36:30.026Z,91.80
2019-05-01T01:38:59.427Z,91.80
2019-05-01T01:41:28.953Z,91.80
2019-05-01T01:44:22.271Z,91.90
2019-05-01T01:46:52.731Z,91.90
2019-05-01T01:49:22.167Z,91.90
2019-05-01T01:51:52.007Z,91.90
2019-05-01T01:54:21.683Z,91.90
2019-05-01T01:56:51.479Z,91.90
2019-05-01T01:59:21.720Z,91.90
2019-05-01T02:02:09.422Z,91.90
2019-05-01T02:05:06.615Z,91.80
2019-05-01T02:07:37.317Z,91.80
2019-05-01T02:10:07.530Z,91.80
2019-05-01T02:12:38.702Z,91.80
2019-05-01T02:15:08.464Z,91.80
2019-05-01T02:17:37.852Z,91.70
2019-05-01T02:20:08.391Z,91.70
2019-05-01T02:22:37.896Z,91.70
2019-05-01T02:25:09.010Z,91.70
2019-05-01T02:28:06.992Z,91.70
2019-05-01T02:30:36.608Z,91.70
2019-05-01T02:33:06.084Z,91.70
2019-05-01T02:35:36.604Z,91.70
2019-05-01T02:38:06.611Z,91.70
2019-05-01T02:40:56.315Z,91.60
2019-05-01T02:43:28.528Z,91.60
2019-05-01T02:46:01.253Z,91.50
2019-05-01T02:48:34.548Z,91.50
2019-05-01T02:51:06.440Z,91.50
2019-05-01T02:53:38.544Z,91.40
2019-05-01T02:56:23.361Z,91.40
2019-05-01T02:58:55.287Z,91.40
2019-05-01T03:01:25.169Z,91.30
2019-05-01T03:03:56.135Z,91.30
2019-05-01T03:06:28.236Z,91.30
2019-05-01T03:08:59.213Z,91.30
2019-05-01T03:11:29.791Z,91.40
2019-05-01T03:14:02.376Z,91.40
2019-05-01T03:16:34.673Z,91.40
2019-05-01T03:19:08.192Z,91.40
2019-05-01T03:21:45.583Z,91.50
2019-05-01T03:24:23.581Z,91.50
2019-05-01T03:26:54.041Z,91.60
2019-05-01T03:29:24.130Z,91.60
2019-05-01T03:32:15.870Z,91.50
2019-05-01T03:34:25.310Z,91.50
2019-05-01T03:36:54.900Z,91.40
2019-05-01T03:39:24.300Z,91.40
2019-05-01T03:41:54.172Z,91.40
2019-05-01T03:44:23.755Z,91.50
2019-05-01T03:46:54.133Z,91.50
2019-05-01T03:49:23.615Z,91.50
2019-05-01T03:51:53.001Z,91.50
2019-05-01T03:54:22.615Z,91.50
2019-05-01T03:56:52.058Z,91.50
2019-05-01T03:59:21.861Z,91.50
2019-05-01T04:02:07.971Z,91.50
2019-05-01T04:04:37.375Z,91.50
2019-05-01T04:07:06.995Z,91.80
2019-05-01T04:09:36.745Z,91.50
2019-05-01T04:12:06.871Z,91.60
2019-05-01T04:14:39.090Z,91.60
2019-05-01T04:17:14.283Z,91.50
2019-05-01T04:19:44.073Z,91.40
2019-05-01T04:22:14.542Z,91.40
2019-05-01T04:24:44.357Z,91.30
2019-05-01T04:27:19.804Z,91.30
2019-05-01T04:30:01.816Z,91.20
2019-05-01T04:32:50.109Z,91.10
2019-05-01T04:35:23.818Z,91.10
2019-05-01T04:37:55.210Z,91.00
2019-05-01T04:40:24.625Z,90.90
2019-05-01T04:42:54.142Z,90.80
2019-05-01T04:45:24.444Z,90.80
2019-05-01T04:47:54.055Z,90.80
2019-05-01T04:50:23.640Z,90.70
2019-05-01T04:52:53.212Z,90.60
2019-05-01T04:55:23.725Z,90.60
2019-05-01T04:57:53.499Z,90.50
2019-05-01T05:00:23.072Z,90.50
2019-05-01T05:03:05.008Z,90.40
2019-05-01T05:05:33.000Z,90.50
2019-05-01T05:08:03.445Z,90.50
2019-05-01T05:10:33.196Z,90.50
2019-05-01T05:13:18.886Z,90.50
2019-05-01T05:16:00.619Z,90.50
2019-05-01T05:18:30.330Z,90.40
2019-05-01T05:21:00.415Z,90.30
2019-05-01T05:23:30.065Z,90.30
2019-05-01T05:25:59.727Z,90.20
2019-05-01T05:28:31.423Z,90.20
2019-05-01T05:31:01.982Z,90.10
2019-05-01T05:33:33.879Z,90.00
2019-05-01T05:36:06.361Z,89.90
2019-05-01T05:38:45.612Z,89.70
2019-05-01T05:41:15.912Z,89.50
2019-05-01T05:43:45.496Z,89.30
2019-05-01T05:46:15.443Z,89.10
2019-05-01T05:48:44.829Z,88.90
2019-05-01T05:51:27.287Z,88.60
2019-05-01T05:54:00.070Z,88.20
2019-05-01T05:56:36.651Z,88.00
2019-05-01T05:59:12.103Z,87.90
2019-05-01T06:02:05.263Z,87.80
2019-05-01T06:04:54.626Z,87.60
2019-05-01T06:07:30.418Z,87.20
2019-05-01T06:10:23.134Z,87.10
2019-05-01T06:13:10.577Z,86.90
2019-05-01T06:15:49.764Z,86.80
2019-05-01T06:18:24.283Z,86.60
2019-05-01T06:21:05.824Z,86.40
2019-05-01T06:23:41.773Z,86.20
2019-05-01T06:26:32.167Z,86.00
2019-05-01T06:29:00.690Z,85.80
2019-05-01T06:31:31.987Z,85.50
2019-05-01T06:34:08.230Z,85.00
2019-05-01T06:36:44.319Z,84.60
2019-05-01T06:39:13.290Z,84.10
2019-05-01T06:41:44.652Z,84.00
2019-05-01T06:44:33.448Z,83.90
2019-05-01T06:47:26.908Z,83.60
2019-05-01T06:50:25.155Z,83.50
2019-05-01T06:52:54.553Z,83.20
2019-05-01T06:55:27.141Z,82.70
2019-05-01T06:57:55.418Z,82.40
2019-05-01T07:00:24.827Z,82.00
2019-05-01T07:02:55.201Z,81.80
2019-05-01T07:05:25.066Z,81.30
2019-05-01T07:07:55.849Z,80.90
2019-05-01T07:10:31.797Z,80.30
2019-05-01T07:13:04.984Z,80.00
2019-05-01T07:15:32.547Z,79.70
2019-05-01T07:18:02.659Z,79.50
2019-05-01T07:20:53.214Z,79.20
2019-05-01T07:23:23.167Z,78.60
2019-05-01T07:25:52.592Z,78.20
2019-05-01T07:28:29.061Z,77.80
2019-05-01T07:31:05.787Z,77.10
2019-05-01T07:33:35.964Z,76.30
2019-05-01T07:36:07.061Z,75.70
2019-05-01T07:38:38.730Z,75.10
2019-05-01T07:41:09.054Z,74.30
2019-05-01T07:44:03.898Z,73.90
2019-05-01T07:46:56.191Z,74.00
2019-05-01T07:49:52.660Z,72.80
2019-05-01T07:52:20.799Z,71.90
2019-05-01T07:54:50.836Z,71.50
2019-05-01T07:57:22.917Z,70.80
2019-05-01T07:59:51.899Z,70.10
2019-05-01T08:02:21.322Z,69.00
2019-05-01T08:04:50.730Z,68.00
2019-05-01T08:07:20.181Z,67.40
2019-05-01T08:09:50.356Z,66.00
2019-05-01T08:12:23.951Z,64.80
2019-05-01T08:14:52.512Z,64.00
2019-05-01T08:17:24.596Z,63.20
2019-05-01T08:19:59.140Z,62.20
2019-05-01T08:22:32.044Z,61.70
2019-05-01T08:25:02.420Z,61.00
2019-05-01T08:27:44.035Z,60.10
2019-05-01T08:30:35.450Z,59.60
2019-05-01T08:33:29.566Z,59.20
2019-05-01T08:35:58.974Z,58.10
2019-05-01T08:38:29.812Z,57.90
2019-05-01T08:41:00.179Z,57.50
2019-05-01T08:43:29.888Z,57.30
2019-05-01T08:46:17.753Z,57.00
2019-05-01T08:49:14.952Z,58.00
2019-05-01T08:51:44.425Z,58.30
2019-05-01T08:54:13.875Z,58.10
2019-05-01T08:56:43.758Z,57.10
2019-05-01T08:59:13.299Z,57.10
2019-05-01T09:01:45.850Z,57.10
2019-05-01T09:04:13.870Z,57.10
2019-05-01T09:06:43.922Z,57.10
2019-05-01T09:09:14.455Z,56.60
2019-05-01T09:11:43.894Z,55.90
2019-05-01T09:14:13.288Z,54.40
2019-05-01T09:16:42.704Z,51.60
2019-05-01T09:19:12.123Z,50.20
2019-05-01T09:21:41.533Z,50.20
2019-05-01T09:24:10.927Z,48.90
2019-05-01T09:26:52.904Z,49.30
2019-05-01T09:29:28.979Z,48.60
2019-05-01T09:31:58.544Z,48.70
2019-05-01T09:34:27.931Z,48.70
2019-05-01T09:36:57.338Z,48.70
2019-05-01T09:39:27.683Z,48.10
2019-05-01T09:41:57.091Z,47.00
2019-05-01T09:44:26.536Z,46.20
2019-05-01T09:46:55.951Z,46.30
2019-05-01T09:49:25.366Z,46.50
2019-05-01T09:52:32.061Z,46.40
2019-05-01T09:55:08.291Z,46.40
2019-05-01T09:57:41.292Z,46.20
2019-05-01T10:00:11.035Z,45.40
2019-05-01T10:02:42.264Z,45.00
2019-05-01T10:05:11.777Z,45.00
2019-05-01T10:07:41.187Z,44.70
2019-05-01T10:10:10.695Z,44.60
2019-05-01T10:12:41.852Z,44.50
2019-05-01T10:15:11.290Z,44.10
2019-05-01T10:17:40.721Z,43.80
2019-05-01T10:20:10.114Z,43.70
2019-05-01T10:22:39.544Z,44.20
2019-05-01T10:25:12.378Z,44.20
2019-05-01T10:27:42.847Z,43.70
2019-05-01T10:30:31.756Z,44.00
2019-05-01T10:33:05.713Z,44.10
2019-05-01T10:36:02.875Z,44.00
2019-05-01T10:38:32.291Z,43.90
2019-05-01T10:41:04.177Z,44.00
2019-05-01T10:43:32.739Z,43.70
2019-05-01T10:46:02.184Z,44.10
2019-05-01T10:48:31.567Z,44.00
2019-05-01T10:51:01.359Z,44.20
2019-05-01T10:53:30.767Z,44.30
2019-05-01T10:56:00.290Z,44.80
2019-05-01T10:58:29.747Z,44.90
2019-05-01T11:01:06.103Z,45.00
2019-05-01T11:03:35.667Z,44.70
2019-05-01T11:06:05.116Z,44.00
2019-05-01T11:08:34.920Z,43.80
2019-05-01T11:11:04.501Z,43.90
2019-05-01T11:13:33.887Z,43.90
2019-05-01T11:16:03.374Z,43.70
2019-05-01T11:18:32.766Z,43.70
2019-05-01T11:21:02.216Z,43.50
2019-05-01T11:23:31.679Z,43.60
2019-05-01T11:26:01.203Z,43.10
2019-05-01T11:28:30.779Z,43.30
2019-05-01T11:31:00.339Z,43.20
2019-05-01T11:33:47.428Z,43.10
2019-05-01T11:36:53.667Z,42.70
2019-05-01T11:39:42.154Z,42.60
2019-05-01T11:42:13.541Z,42.40
2019-05-01T11:44:42.970Z,42.20
2019-05-01T11:47:12.352Z,42.00
2019-05-01T11:49:41.844Z,42.00
2019-05-01T11:52:11.245Z,41.90
2019-05-01T11:54:40.704Z,41.70
2019-05-01T11:57:10.183Z,41.80
2019-05-01T11:59:41.132Z,41.90
2019-05-01T12:02:14.466Z,41.70
2019-05-01T12:04:48.774Z,42.00
2019-05-01T12:07:18.413Z,41.20
2019-05-01T12:09:49.226Z,41.00
2019-05-01T12:12:20.291Z,40.80
2019-05-01T12:14:51.003Z,40.70
2019-05-01T12:17:44.177Z,40.50
2019-05-01T12:20:14.342Z,40.60
2019-05-01T12:22:43.859Z,40.50
2019-05-01T12:25:13.616Z,40.50
2019-05-01T12:27:43.030Z,40.30
2019-05-01T12:30:13.423Z,40.50
2019-05-01T12:32:42.835Z,40.10
2019-05-01T12:35:12.364Z,40.20
2019-05-01T12:37:42.689Z,40.00
2019-05-01T12:40:16.840Z,39.80
2019-05-01T12:42:46.414Z,40.00
2019-05-01T12:45:16.481Z,40.30
2019-05-01T12:47:53.698Z,40.50
2019-05-01T12:50:23.540Z,40.40
2019-05-01T12:53:08.245Z,40.40
2019-05-01T12:56:05.748Z,40.10
2019-05-01T12:58:37.425Z,40.20
2019-05-01T13:01:09.139Z,39.90
2019-05-01T13:03:38.555Z,39.80
2019-05-01T13:06:08.024Z,40.00
2019-05-01T13:08:37.441Z,39.80
2019-05-01T13:11:06.933Z,39.70
2019-05-01T13:13:36.280Z,39.70
2019-05-01T13:16:05.781Z,39.50
2019-05-01T13:18:35.345Z,39.50
2019-05-01T13:21:04.788Z,39.70
2019-05-01T13:23:34.187Z,39.50
2019-05-01T13:26:10.547Z,39.20
2019-05-01T13:28:49.751Z,39.00
2019-05-01T13:31:36.577Z,39.10
2019-05-01T13:34:06.367Z,38.80
2019-05-01T13:36:37.841Z,38.30
2019-05-01T13:39:09.380Z,37.90
2019-05-01T13:41:38.766Z,37.50
2019-05-01T13:44:08.221Z,37.30
2019-05-01T13:46:37.626Z,37.00
2019-05-01T13:49:07.003Z,36.90
2019-05-01T13:51:36.523Z,36.60
2019-05-01T13:54:07.480Z,36.10
2019-05-01T13:56:37.107Z,35.90
2019-05-01T13:59:08.578Z,36.00
2019-05-01T14:01:38.012Z,35.80
2019-05-01T14:04:07.837Z,35.50
2019-05-01T14:06:37.235Z,35.40
2019-05-01T14:09:10.436Z,35.00
2019-05-01T14:11:39.860Z,35.10
2019-05-01T14:14:09.320Z,35.20
2019-05-01T14:16:38.718Z,34.90
2019-05-01T14:19:08.275Z,34.80
2019-05-01T14:21:56.700Z,34.90
2019-05-01T14:24:32.397Z,34.80
2019-05-01T14:27:01.811Z,34.50
2019-05-01T14:29:31.224Z,34.10
2019-05-01T14:32:00.760Z,33.80
2019-05-01T14:34:30.121Z,33.90
2019-05-01T14:36:59.562Z,34.30
2019-05-01T14:39:30.289Z,34.90
2019-05-01T14:41:59.740Z,35.30
2019-05-01T14:44:36.464Z,35.60
2019-05-01T14:47:00.335Z,35.70
2019-05-01T14:49:29.691Z,35.70
2019-05-01T14:51:59.210Z,35.80
2019-05-01T14:54:28.665Z,36.10
2019-05-01T14:56:58.087Z,36.10
2019-05-01T14:59:29.896Z,35.80
2019-05-01T15:01:59.300Z,35.50
2019-05-01T15:04:28.740Z,35.00
2019-05-01T15:06:58.127Z,35.00
2019-05-01T15:09:27.745Z,35.20
2019-05-01T15:11:57.151Z,35.50
2019-05-01T15:14:46.241Z,35.50
2019-05-01T15:17:19.507Z,35.90
2019-05-01T15:19:58.295Z,36.20
2019-05-01T15:22:27.623Z,36.20
2019-05-01T15:24:58.417Z,36.30
2019-05-01T15:27:27.994Z,36.20
2019-05-01T15:29:57.542Z,36.40
2019-05-01T15:32:26.940Z,36.60
2019-05-01T15:34:56.339Z,36.50
2019-05-01T15:37:25.747Z,36.60
2019-05-01T15:40:09.531Z,36.50
2019-05-01T15:42:43.742Z,36.10
2019-05-01T15:45:13.561Z,35.60
2019-05-01T15:47:44.124Z,35.30
2019-05-01T15:50:13.684Z,35.20
2019-05-01T15:52:44.502Z,35.20
2019-05-01T15:55:16.915Z,35.40
2019-05-01T15:57:46.403Z,35.60
2019-05-01T16:00:18.124Z,35.60
2019-05-01T16:02:47.582Z,35.60
2019-05-01T16:05:17.149Z,34.50
2019-05-01T16:07:46.583Z,33.60
2019-05-01T16:10:18.821Z,33.10
2019-05-01T16:12:56.613Z,33.30
2019-05-01T16:15:29.128Z,33.30
2019-05-01T16:17:58.633Z,33.60
2019-05-01T16:20:28.045Z,33.90
2019-05-01T16:22:57.550Z,33.00
2019-05-01T16:25:26.919Z,31.00
2019-05-01T16:27:57.413Z,29.40
2019-05-01T16:30:27.576Z,28.20
2019-05-01T16:32:57.036Z,27.20
2019-05-01T16:35:26.442Z,26.50
2019-05-01T16:37:58.018Z,26.00
2019-05-01T16:40:43.908Z,25.40
2019-05-01T16:43:13.958Z,24.90
2019-05-01T16:45:43.369Z,24.60
2019-05-01T16:48:13.163Z,24.10
2019-05-01T16:50:42.575Z,23.70
2019-05-01T16:53:12.328Z,23.50
2019-05-01T16:55:41.717Z,23.20
2019-05-01T16:58:14.529Z,23.10
2019-05-01T17:01:13.053Z,23.00
2019-05-01T17:03:52.199Z,23.00
2019-05-01T17:06:49.349Z,23.20
2019-05-01T17:09:36.522Z,23.20
2019-05-01T17:12:06.687Z,23.60
2019-05-01T17:14:36.355Z,23.60
2019-05-01T17:17:07.624Z,23.50
2019-05-01T17:19:37.055Z,24.00
2019-05-01T17:22:09.298Z,24.80
2019-05-01T17:24:37.571Z,25.80
2019-05-01T17:27:07.016Z,26.90
2019-05-01T17:29:36.432Z,27.90
2019-05-01T17:32:06.727Z,28.70
2019-05-01T17:34:36.286Z,29.40
2019-05-01T17:37:05.815Z,29.90
2019-05-01T17:39:35.590Z,30.50
2019-05-01T17:42:05.433Z,31.20
2019-05-01T17:44:34.961Z,31.90
2019-05-01T17:47:05.089Z,32.20
2019-05-01T17:49:34.651Z,32.70
2019-05-01T17:52:04.184Z,33.20
2019-05-01T17:54:33.718Z,33.80
2019-05-01T17:57:03.267Z,34.50
2019-05-01T17:59:32.860Z,35.00
2019-05-01T18:02:22.720Z,35.50
2019-05-01T18:05:08.560Z,36.00
2019-05-01T18:07:40.477Z,36.50
2019-05-01T18:10:09.981Z,37.00
2019-05-01T18:12:39.778Z,37.50
2019-05-01T18:15:09.779Z,38.00
2019-05-01T18:17:39.197Z,38.40
2019-05-01T18:20:09.116Z,39.00
2019-05-01T18:23:00.568Z,39.30
2019-05-01T18:25:57.726Z,39.70
2019-05-01T18:28:34.136Z,40.10
2019-05-01T18:31:04.153Z,40.70
2019-05-01T18:33:33.587Z,41.20
2019-05-01T18:36:03.633Z,41.70
2019-05-01T18:38:55.304Z,42.20
2019-05-01T18:41:29.868Z,42.70
2019-05-01T18:43:59.284Z,43.20
2019-05-01T18:46:28.703Z,43.50
2019-05-01T18:48:58.520Z,43.90
2019-05-01T18:51:27.916Z,44.20
2019-05-01T18:53:58.026Z,44.70
2019-05-01T18:56:28.813Z,45.10
2019-05-01T18:58:58.479Z,45.40
2019-05-01T19:01:27.956Z,45.80
2019-05-01T19:03:57.475Z,46.10
2019-05-01T19:06:40.125Z,46.60
2019-05-01T19:08:58.270Z,47.00
2019-05-01T19:11:27.900Z,47.30
2019-05-01T19:13:58.718Z,47.60
2019-05-01T19:16:28.318Z,48.10
2019-05-01T19:18:57.843Z,48.30
2019-05-01T19:21:29.266Z,48.70
2019-05-01T19:24:00.649Z,49.00
2019-05-01T19:26:30.029Z,49.30
2019-05-01T19:28:59.461Z,49.50
2019-05-01T19:31:28.904Z,49.70
2019-05-01T19:33:58.383Z,50.00
2019-05-01T19:36:27.841Z,50.30
2019-05-01T19:38:57.316Z,50.50
2019-05-01T19:41:26.857Z,50.80
2019-05-01T19:43:56.291Z,51.00
2019-05-01T19:46:25.696Z,51.10
2019-05-01T19:48:55.164Z,51.30
2019-05-01T19:51:26.061Z,51.50
2019-05-01T19:53:55.610Z,51.70
2019-05-01T19:56:25.133Z,52.00
2019-05-01T19:58:57.279Z,52.30
2019-05-01T20:01:26.733Z,52.60
2019-05-01T20:03:56.068Z,52.90
2019-05-01T20:06:25.492Z,53.10
2019-05-01T20:08:54.922Z,53.30
2019-05-01T20:11:24.384Z,53.60
2019-05-01T20:13:53.815Z,53.90
2019-05-01T20:16:23.384Z,54.20
2019-05-01T20:18:52.795Z,54.70
2019-05-01T20:21:22.176Z,55.00
2019-05-01T20:23:51.615Z,55.50
2019-05-01T20:26:21.073Z,55.90
2019-05-01T20:28:50.541Z,56.20
2019-05-01T20:31:20.871Z,56.70
2019-05-01T20:33:51.088Z,57.10
2019-05-01T20:36:20.487Z,57.40
2019-05-01T20:38:49.918Z,57.70
2019-05-01T20:41:19.320Z,58.10
2019-05-01T20:43:48.728Z,58.40
2019-05-01T20:46:21.479Z,58.50
2019-05-01T20:48:49.182Z,58.60
2019-05-01T20:51:20.273Z,58.70
2019-05-01T20:53:49.813Z,58.90
2019-05-01T20:56:39.232Z,59.10
2019-05-01T20:59:08.611Z,59.50
2019-05-01T21:01:38.125Z,59.80
2019-05-01T21:04:32.428Z,60.20
2019-05-01T21:07:29.318Z,60.40
2019-05-01T21:09:59.185Z,60.60
2019-05-01T21:12:28.641Z,60.80
2019-05-01T21:14:58.025Z,61.20
2019-05-01T21:17:27.413Z,61.50
2019-05-01T21:19:56.815Z,61.90
2019-05-01T21:22:26.226Z,62.60
2019-05-01T21:24:55.627Z,63.00
2019-05-01T21:27:25.020Z,63.20
2019-05-01T21:29:54.443Z,63.40
2019-05-01T21:32:27.485Z,64.30
2019-05-01T21:34:54.941Z,63.90
2019-05-01T21:37:24.336Z,64.10
2019-05-01T21:39:53.877Z,64.40
2019-05-01T21:42:24.512Z,64.60
2019-05-01T21:44:54.173Z,64.90
2019-05-01T21:47:23.830Z,65.20
2019-05-01T21:49:53.450Z,65.40
2019-05-01T21:52:26.445Z,65.70
2019-05-01T21:54:55.506Z,66.00
2019-05-01T21:57:29.615Z,66.40
2019-05-01T21:59:57.454Z,66.70
2019-05-01T22:02:27.112Z,67.00
2019-05-01T22:04:56.712Z,67.10
2019-05-01T22:07:27.803Z,67.40
2019-05-01T22:09:57.207Z,67.70
2019-05-01T22:12:26.619Z,67.70
2019-05-01T22:15:11.108Z,67.90
2019-05-01T22:17:49.175Z,68.20
2019-05-01T22:20:22.639Z,68.40
2019-05-01T22:22:56.712Z,68.70
2019-05-01T22:25:45.048Z,69.00
2019-05-01T22:28:28.955Z,69.30
2019-05-01T22:31:23.428Z,69.50
2019-05-01T22:33:56.867Z,69.60
2019-05-01T22:36:26.272Z,69.50
2019-05-01T22:38:55.707Z,69.40
2019-05-01T22:41:25.143Z,69.30
2019-05-01T22:43:55.666Z,69.20
2019-05-01T22:46:28.666Z,69.10
2019-05-01T22:48:58.066Z,69.00
2019-05-01T22:51:27.499Z,69.20
2019-05-01T22:53:56.910Z,69.20
2019-05-01T22:56:26.412Z,69.20
2019-05-01T22:58:55.801Z,69.30
2019-05-01T23:01:26.230Z,69.20
2019-05-01T23:03:57.897Z,69.20
2019-05-01T23:06:27.296Z,69.20
2019-05-01T23:08:56.771Z,69.30
2019-05-01T23:11:27.746Z,69.50
2019-05-01T23:13:57.177Z,69.70
2019-05-01T23:16:30.122Z,70.60
2019-05-01T23:18:59.512Z,70.10
2019-05-01T23:21:28.918Z,70.20
2019-05-01T23:24:01.880Z,70.40
2019-05-01T23:26:29.443Z,70.50
2019-05-01T23:28:58.847Z,70.60
2019-05-01T23:31:28.516Z,70.60
2019-05-01T23:33:57.952Z,70.70
2019-05-01T23:36:29.257Z,70.80
2019-05-01T23:38:58.778Z,70.80
2019-05-01T23:41:44.801Z,71.10
2019-05-01T23:44:03.436Z,71.30
2019-05-01T23:46:30.319Z,71.50
2019-05-01T23:48:59.708Z,71.60
2019-05-01T23:51:29.918Z,71.60
2019-05-01T23:53:59.351Z,71.60
2019-05-01T23:56:31.183Z,71.50
2019-05-01T23:58:59.859Z,71.60
